createdAt,value
2023-05-19T00:01:03.181Z,87.10
2023-05-19T00:03:30.551Z,87.06
2023-05-19T00:05:58.781Z,86.91
2023-05-19T00:08:26.653Z,87.91
2023-05-19T00:10:53.831Z,88.55
2023-05-19T00:13:21.918Z,89.10
2023-05-19T00:15:50.242Z,89.22
2023-05-19T00:18:17.388Z,88.97
2023-05-19T00:20:44.343Z,89.17
2023-05-19T00:23:11.663Z,88.95
2023-05-19T00:25:38.598Z,89.07
2023-05-19T00:28:05.490Z,88.37
2023-05-19T00:30:32.846Z,88.08
2023-05-19T00:33:00.408Z,88.54
2023-05-19T00:35:27.472Z,87.67
2023-05-19T00:37:59.114Z,87.50
2023-05-19T00:40:28.214Z,87.06
2023-05-19T00:42:57.194Z,88.58
2023-05-19T00:45:25.396Z,88.38
2023-05-19T00:47:53.198Z,87.46
2023-05-19T00:50:20.117Z,88.65
2023-05-19T00:52:51.309Z,88.85
2023-05-19T00:55:43.369Z,90.28
2023-05-19T00:58:14.143Z,90.03
2023-05-19T01:00:41.218Z,88.96
2023-05-19T01:03:09.162Z,88.97
2023-05-19T01:05:37.235Z,89.46
2023-05-19T01:08:05.826Z,89.64
2023-05-19T01:10:33.162Z,90.62
2023-05-19T01:13:02.188Z,89.50
2023-05-19T01:15:29.564Z,90.04
2023-05-19T01:18:12.335Z,89.85
2023-05-19T01:20:40.477Z,89.12
2023-05-19T01:23:46.088Z,89.92
2023-05-19T01:26:48.007Z,89.73
2023-05-19T01:29:26.203Z,90.31
2023-05-19T01:31:55.637Z,90.52
2023-05-19T01:34:25.540Z,90.66
2023-05-19T01:36:56.043Z,91.39
2023-05-19T01:39:25.225Z,90.90
2023-05-19T01:41:54.242Z,91.27
2023-05-19T01:44:23.173Z,91.71
2023-05-19T01:46:51.013Z,93.01
2023-05-19T01:49:17.913Z,93.76
2023-05-19T01:51:45.956Z,94.52
2023-05-19T01:54:12.741Z,94.31
2023-05-19T01:56:53.244Z,93.78
2023-05-19T02:00:09.329Z,94.35
2023-05-19T02:03:08.317Z,94.79
2023-05-19T02:05:44.995Z,95.10
2023-05-19T02:08:21.230Z,95.37
2023-05-19T02:11:00.815Z,96.05
2023-05-19T02:13:34.226Z,96.22
2023-05-19T02:16:05.386Z,96.48
2023-05-19T02:18:35.358Z,96.59
2023-05-19T02:21:02.894Z,96.54
2023-05-19T02:23:30.979Z,97.28
2023-05-19T02:26:01.274Z,97.78
2023-05-19T02:28:28.247Z,97.63
2023-05-19T02:30:55.670Z,97.57
2023-05-19T02:33:22.667Z,97.94
2023-05-19T02:35:49.657Z,97.96
2023-05-19T02:38:16.471Z,96.92
2023-05-19T02:40:44.294Z,96.72
2023-05-19T02:43:11.314Z,97.20
2023-05-19T02:45:38.221Z,97.99
2023-05-19T02:48:06.309Z,98.42
2023-05-19T02:50:33.439Z,98.73
2023-05-19T02:53:00.454Z,98.85
2023-05-19T02:55:27.536Z,99.24
2023-05-19T02:57:54.530Z,98.99
2023-05-19T03:03:39.370Z,97.27
2023-05-19T03:06:06.890Z,97.29
2023-05-19T03:08:33.683Z,97.12
2023-05-19T03:11:01.307Z,96.73
2023-05-19T03:13:31.961Z,96.34
2023-05-19T03:16:00.799Z,97.75
2023-05-19T03:18:27.824Z,97.69
2023-05-19T03:20:54.888Z,96.61
2023-05-19T03:23:22.895Z,96.90
2023-05-19T03:25:50.209Z,97.08
2023-05-19T03:28:17.166Z,97.21
2023-05-19T03:30:46.356Z,97.53
2023-05-19T03:33:18.961Z,96.81
2023-05-19T03:35:47.304Z,96.36
2023-05-19T03:38:15.366Z,95.54
2023-05-19T03:40:51.229Z,95.56
2023-05-19T03:43:18.122Z,96.49
2023-05-19T03:45:52.372Z,97.14
2023-05-19T03:48:48.476Z,96.55
2023-05-19T03:51:33.993Z,94.75
2023-05-19T03:54:11.554Z,94.17
2023-05-19T03:56:44.240Z,95.17
2023-05-19T03:59:11.102Z,95.84
2023-05-19T04:01:41.333Z,96.14
2023-05-19T04:04:33.226Z,96.28
2023-05-19T04:07:00.815Z,97.50
2023-05-19T04:09:27.626Z,97.57
2023-05-19T04:11:56.287Z,97.87
2023-05-19T04:14:24.373Z,98.87
2023-05-19T04:16:51.211Z,98.68
2023-05-19T04:19:19.071Z,99.09
2023-05-19T04:21:46.242Z,99.09
2023-05-19T04:24:13.108Z,99.07
2023-05-19T04:26:40.878Z,98.85
2023-05-19T04:29:07.821Z,97.02
2023-05-19T04:31:35.408Z,95.99
2023-05-19T04:34:04.622Z,95.63
2023-05-19T04:36:35.334Z,96.16
2023-05-19T04:39:04.456Z,94.88
2023-05-19T04:41:31.371Z,94.54
2023-05-19T04:43:59.921Z,93.66
2023-05-19T04:46:27.362Z,92.93
2023-05-19T04:48:55.519Z,94.17
2023-05-19T04:51:25.216Z,93.28
2023-05-19T04:53:52.051Z,92.15
2023-05-19T04:56:45.308Z,91.57
2023-05-19T04:59:12.916Z,91.04
2023-05-19T05:01:43.440Z,89.36
2023-05-19T05:04:13.405Z,89.30
2023-05-19T05:06:41.194Z,90.71
2023-05-19T05:09:09.304Z,90.07
2023-05-19T05:11:37.014Z,88.78
2023-05-19T05:14:04.545Z,87.28
2023-05-19T05:16:37.391Z,87.30
2023-05-19T05:19:05.848Z,86.46
2023-05-19T05:21:33.847Z,85.95
2023-05-19T05:24:02.355Z,85.03
2023-05-19T05:26:34.187Z,86.32
2023-05-19T05:29:02.728Z,86.35
2023-05-19T05:31:30.150Z,86.03
2023-05-19T05:33:58.011Z,85.85
2023-05-19T05:36:28.544Z,84.70
2023-05-19T05:41:47.373Z,84.85
2023-05-19T05:44:14.393Z,83.92
2023-05-19T05:46:44.230Z,83.65
2023-05-19T05:49:13.361Z,83.89
2023-05-19T05:51:54.290Z,83.84
2023-05-19T05:54:38.451Z,84.17
2023-05-19T05:57:10.264Z,84.01
2023-05-19T05:59:38.447Z,83.85
2023-05-19T06:02:05.628Z,83.41
2023-05-19T06:04:33.485Z,83.95
2023-05-19T06:07:01.319Z,82.62
2023-05-19T06:09:32.094Z,81.61
2023-05-19T06:12:25.295Z,81.46
2023-05-19T06:14:54.437Z,80.28
2023-05-19T06:17:40.260Z,79.83
2023-05-19T06:20:08.071Z,80.49
2023-05-19T06:22:35.529Z,80.15
2023-05-19T06:25:03.326Z,79.38
2023-05-19T06:27:31.185Z,79.41
2023-05-19T06:29:59.531Z,80.43
2023-05-19T06:32:28.263Z,81.19
2023-05-19T06:34:58.058Z,82.28
2023-05-19T06:37:25.787Z,80.89
2023-05-19T06:39:55.120Z,78.59
2023-05-19T06:42:22.800Z,78.40
2023-05-19T06:45:08.158Z,78.43
2023-05-19T06:47:36.294Z,77.42
2023-05-19T06:50:03.694Z,77.25
2023-05-19T06:52:34.271Z,79.46
2023-05-19T06:55:02.751Z,78.01
2023-05-19T06:57:32.311Z,76.53
2023-05-19T07:00:01.604Z,77.21
2023-05-19T07:02:28.734Z,77.94
2023-05-19T07:04:55.850Z,75.03
2023-05-19T07:07:25.212Z,74.45
2023-05-19T07:09:53.120Z,74.96
2023-05-19T07:12:23.249Z,74.19
2023-05-19T07:14:53.113Z,74.02
2023-05-19T07:17:20.985Z,74.26
2023-05-19T07:19:48.907Z,75.29
2023-05-19T07:22:16.245Z,77.10
2023-05-19T07:24:44.412Z,77.93
2023-05-19T07:27:13.225Z,77.10
2023-05-19T07:29:43.728Z,75.71
2023-05-19T07:32:11.365Z,76.26
2023-05-19T07:34:40.616Z,75.79
2023-05-19T07:37:07.707Z,74.53
2023-05-19T07:39:36.089Z,72.85
2023-05-19T07:42:03.911Z,74.06
2023-05-19T07:44:32.268Z,74.67
2023-05-19T07:46:59.056Z,72.52
2023-05-19T07:49:55.436Z,73.20
2023-05-19T07:52:25.756Z,74.55
2023-05-19T07:54:52.526Z,72.95
2023-05-19T07:57:19.528Z,73.22
2023-05-19T07:59:46.293Z,75.22
2023-05-19T08:02:14.493Z,73.80
2023-05-19T08:05:10.317Z,74.74
2023-05-19T08:07:37.474Z,75.03
2023-05-19T08:10:04.635Z,74.75
2023-05-19T08:12:31.817Z,75.79
2023-05-19T08:15:01.009Z,75.74
2023-05-19T08:17:28.410Z,72.97
2023-05-19T08:20:20.374Z,74.48
2023-05-19T08:22:49.384Z,74.24
2023-05-19T08:25:16.257Z,73.34
2023-05-19T08:27:43.181Z,73.53
2023-05-19T08:30:11.370Z,73.11
2023-05-19T08:32:38.733Z,73.72
2023-05-19T08:35:05.860Z,71.71
2023-05-19T08:37:36.050Z,73.18
2023-05-19T08:40:03.114Z,73.08
2023-05-19T08:42:30.020Z,71.69
2023-05-19T08:44:56.845Z,72.88
2023-05-19T08:47:23.773Z,73.42
2023-05-19T08:49:54.346Z,72.59
2023-05-19T08:52:39.648Z,71.75
2023-05-19T08:58:11.845Z,71.92
2023-05-19T09:00:39.073Z,72.85
2023-05-19T09:03:18.170Z,72.83
2023-05-19T09:05:52.278Z,72.20
2023-05-19T09:08:19.250Z,73.29
2023-05-19T09:10:46.717Z,72.97
2023-05-19T09:13:15.257Z,72.87
2023-05-19T09:15:42.513Z,72.14
2023-05-19T09:18:13.319Z,73.01
2023-05-19T09:20:42.099Z,72.38
2023-05-19T09:23:17.741Z,72.73
2023-05-19T09:25:52.239Z,75.30
2023-05-19T09:28:29.269Z,69.70
2023-05-19T09:31:08.683Z,70.65
2023-05-19T09:33:37.200Z,71.26
2023-05-19T09:36:04.827Z,72.47
2023-05-19T09:38:33.300Z,70.13
2023-05-19T09:41:01.120Z,69.88
2023-05-19T09:43:34.322Z,69.52
2023-05-19T09:46:07.540Z,69.33
2023-05-19T09:48:35.722Z,68.78
2023-05-19T09:51:04.020Z,69.62
2023-05-19T09:53:31.951Z,70.56
2023-05-19T09:55:58.990Z,71.11
2023-05-19T09:58:26.682Z,72.56
2023-05-19T10:00:54.077Z,71.52
2023-05-19T10:03:25.715Z,70.39
2023-05-19T10:05:53.643Z,70.98
2023-05-19T10:08:20.776Z,71.07
2023-05-19T10:10:48.509Z,70.20
2023-05-19T10:13:16.352Z,70.40
2023-05-19T10:15:57.288Z,69.52
2023-05-19T10:18:27.333Z,68.99
2023-05-19T10:20:54.533Z,71.34
2023-05-19T10:23:21.395Z,69.23
2023-05-19T10:25:49.711Z,70.09
2023-05-19T10:28:18.560Z,68.88
2023-05-19T10:30:53.211Z,68.97
2023-05-19T10:33:23.865Z,70.49
2023-05-19T10:36:06.040Z,70.10
2023-05-19T10:38:42.192Z,70.41
2023-05-19T10:41:31.777Z,71.22
2023-05-19T10:44:33.652Z,71.65
2023-05-19T10:47:06.984Z,71.31
2023-05-19T10:49:36.873Z,71.76
2023-05-19T10:52:22.371Z,70.62
2023-05-19T10:54:49.697Z,71.58
2023-05-19T10:57:20.833Z,71.60
2023-05-19T10:59:51.352Z,71.66
2023-05-19T11:02:43.828Z,71.89
2023-05-19T11:05:16.401Z,71.88
2023-05-19T11:07:56.442Z,72.03
2023-05-19T11:10:25.041Z,72.45
2023-05-19T11:12:52.421Z,72.71
2023-05-19T11:15:26.489Z,71.59
2023-05-19T11:17:54.634Z,74.93
2023-05-19T11:20:25.948Z,71.01
2023-05-19T11:23:05.616Z,71.55
2023-05-19T11:25:49.946Z,71.45
2023-05-19T11:28:42.973Z,71.38
2023-05-19T11:31:11.434Z,70.26
2023-05-19T11:33:41.303Z,71.45
2023-05-19T11:36:08.649Z,70.38
2023-05-19T11:39:02.358Z,70.22
2023-05-19T11:41:29.187Z,70.91
2023-05-19T11:43:55.968Z,71.19
2023-05-19T11:46:48.559Z,70.86
2023-05-19T11:49:15.838Z,71.78
2023-05-19T11:51:46.300Z,72.66
2023-05-19T11:54:38.311Z,71.04
2023-05-19T11:57:08.789Z,71.92
2023-05-19T12:02:29.370Z,70.60
2023-05-19T12:04:56.200Z,69.59
2023-05-19T12:07:24.459Z,69.67
2023-05-19T12:09:53.414Z,69.80
2023-05-19T12:12:22.617Z,70.15
2023-05-19T12:14:51.483Z,68.45
2023-05-19T12:17:20.295Z,68.53
2023-05-19T12:19:49.437Z,68.88
2023-05-19T12:22:21.428Z,68.09
2023-05-19T12:24:49.399Z,70.17
2023-05-19T12:27:21.486Z,70.66
2023-05-19T12:29:51.727Z,70.29
2023-05-19T12:32:19.163Z,70.75
2023-05-19T12:34:46.571Z,70.86
2023-05-19T12:37:13.910Z,69.88
2023-05-19T12:39:42.666Z,70.09
2023-05-19T12:42:11.287Z,70.87
2023-05-19T12:44:38.960Z,70.92
2023-05-19T12:47:06.803Z,72.36
2023-05-19T12:49:34.242Z,70.11
2023-05-19T12:52:05.187Z,69.71
2023-05-19T12:54:34.150Z,68.52
2023-05-19T12:57:01.752Z,69.27
2023-05-19T12:59:38.417Z,69.12
2023-05-19T13:02:06.608Z,69.47
2023-05-19T13:04:33.526Z,69.71
2023-05-19T13:07:00.376Z,69.75
2023-05-19T13:09:27.114Z,68.93
2023-05-19T13:11:54.205Z,68.62
2023-05-19T13:14:21.038Z,70.42
2023-05-19T13:16:47.956Z,68.72
2023-05-19T13:19:25.055Z,67.86
2023-05-19T13:21:52.762Z,67.57
2023-05-19T13:24:19.580Z,67.36
2023-05-19T13:26:46.399Z,66.34
2023-05-19T13:29:13.232Z,67.32
2023-05-19T13:31:40.670Z,67.73
2023-05-19T13:34:07.689Z,68.56
2023-05-19T13:36:34.448Z,68.10
2023-05-19T13:39:01.757Z,68.46
2023-05-19T13:41:28.520Z,67.74
2023-05-19T13:43:59.296Z,66.96
2023-05-19T13:46:33.114Z,68.17
2023-05-19T13:49:10.710Z,68.44
2023-05-19T13:51:37.526Z,69.32
2023-05-19T13:54:05.297Z,69.63
2023-05-19T13:56:32.202Z,68.15
2023-05-19T13:58:59.407Z,68.96
2023-05-19T14:01:26.212Z,69.15
2023-05-19T14:03:53.332Z,69.81
2023-05-19T14:06:20.302Z,68.29
2023-05-19T14:08:47.197Z,67.17
2023-05-19T14:11:20.669Z,68.34
2023-05-19T14:13:52.554Z,68.58
2023-05-19T14:16:19.957Z,67.97
2023-05-19T14:18:47.270Z,68.77
2023-05-19T14:21:14.315Z,69.40
2023-05-19T14:23:41.343Z,70.00
2023-05-19T14:26:09.338Z,70.00
2023-05-19T14:28:36.720Z,69.51
2023-05-19T14:31:04.348Z,69.67
2023-05-19T14:33:38.115Z,69.95
2023-05-19T14:36:07.958Z,69.99
2023-05-19T14:38:35.221Z,69.97
2023-05-19T14:41:02.329Z,69.12
2023-05-19T14:43:29.226Z,69.63
2023-05-19T14:45:57.149Z,69.74
2023-05-19T14:48:24.126Z,69.94
2023-05-19T14:50:52.820Z,69.91
2023-05-19T14:53:19.624Z,69.79
2023-05-19T14:55:49.793Z,70.08
2023-05-19T14:58:27.434Z,69.78
2023-05-19T15:00:58.103Z,69.15
2023-05-19T15:03:25.122Z,69.90
2023-05-19T15:05:52.115Z,70.10
2023-05-19T15:08:19.073Z,70.48
2023-05-19T15:10:49.026Z,70.64
2023-05-19T15:13:16.783Z,69.68
2023-05-19T15:15:43.653Z,69.53
2023-05-19T15:18:10.446Z,69.54
2023-05-19T15:20:38.316Z,69.91
2023-05-19T15:23:05.133Z,70.85
2023-05-19T15:25:31.999Z,71.73
2023-05-19T15:27:58.837Z,71.33
2023-05-19T15:30:25.653Z,70.35
2023-05-19T15:32:52.423Z,70.61
2023-05-19T15:35:20.258Z,70.63
2023-05-19T15:37:47.018Z,70.93
2023-05-19T15:40:14.091Z,71.30
2023-05-19T15:42:40.931Z,70.69
2023-05-19T15:45:10.095Z,71.40
2023-05-19T15:47:37.017Z,70.60
2023-05-19T15:50:03.994Z,71.23
2023-05-19T15:52:30.979Z,71.17
2023-05-19T15:54:59.715Z,71.26
2023-05-19T15:57:26.587Z,71.21
2023-05-19T15:59:53.512Z,72.21
2023-05-19T16:02:21.815Z,71.44
2023-05-19T16:05:15.788Z,70.92
2023-05-19T16:07:43.769Z,71.90
2023-05-19T16:10:10.722Z,71.02
2023-05-19T16:12:37.629Z,71.14
2023-05-19T16:15:05.123Z,71.00
2023-05-19T16:17:31.957Z,71.41
2023-05-19T16:19:59.395Z,71.88
2023-05-19T16:22:26.784Z,70.91
2023-05-19T16:24:53.518Z,70.86
2023-05-19T16:27:20.964Z,70.99
2023-05-19T16:29:48.764Z,71.73
2023-05-19T16:32:15.764Z,71.66
2023-05-19T16:34:43.720Z,72.14
2023-05-19T16:37:10.716Z,72.61
2023-05-19T16:42:29.799Z,73.72
2023-05-19T16:44:56.588Z,73.96
2023-05-19T16:47:27.366Z,74.17
2023-05-19T16:49:55.687Z,74.19
2023-05-19T16:52:24.354Z,74.97
2023-05-19T16:54:51.776Z,75.28
2023-05-19T16:57:20.678Z,75.24
2023-05-19T16:59:50.791Z,75.19
2023-05-19T17:02:17.676Z,75.92
2023-05-19T17:07:35.876Z,76.73
2023-05-19T17:10:04.054Z,76.19
2023-05-19T17:12:30.975Z,76.11
2023-05-19T17:14:57.841Z,76.18
2023-05-19T17:17:24.671Z,76.20
2023-05-19T17:19:51.648Z,76.54
2023-05-19T17:22:18.783Z,76.61
2023-05-19T17:24:46.315Z,76.89
2023-05-19T17:27:14.819Z,77.02
2023-05-19T17:29:41.673Z,77.08
2023-05-19T17:32:09.692Z,76.68
2023-05-19T17:34:37.670Z,77.17
2023-05-19T17:37:05.322Z,76.74
2023-05-19T17:39:32.156Z,76.86
2023-05-19T17:41:59.369Z,77.40
2023-05-19T17:44:26.150Z,77.90
2023-05-19T17:46:53.078Z,77.83
2023-05-19T17:49:22.332Z,78.58
2023-05-19T17:51:49.419Z,78.66
2023-05-19T17:54:41.528Z,79.70
2023-05-19T17:57:12.930Z,79.83
2023-05-19T17:59:42.199Z,79.67
2023-05-19T18:02:09.600Z,79.29
2023-05-19T18:04:36.675Z,79.43
2023-05-19T18:07:08.172Z,79.35
2023-05-19T18:09:37.786Z,79.02
2023-05-19T18:12:05.737Z,78.43
2023-05-19T18:14:32.518Z,79.65
2023-05-19T18:17:00.490Z,79.68
2023-05-19T18:19:28.156Z,79.91
2023-05-19T18:21:55.053Z,80.06
2023-05-19T18:24:22.521Z,80.66
2023-05-19T18:26:49.341Z,81.24
2023-05-19T18:29:16.712Z,81.32
2023-05-19T18:31:44.317Z,82.42
2023-05-19T18:34:11.696Z,82.73
2023-05-19T18:36:38.553Z,81.67
2023-05-19T18:39:06.315Z,82.12
2023-05-19T18:41:35.637Z,82.19
2023-05-19T18:44:03.289Z,82.29
2023-05-19T18:46:30.297Z,82.78
2023-05-19T18:48:57.173Z,82.96
2023-05-19T18:51:50.465Z,83.53
2023-05-19T18:54:20.713Z,83.63
2023-05-19T18:56:47.727Z,83.82
2023-05-19T18:59:14.574Z,83.30
2023-05-19T19:01:41.859Z,84.23
2023-05-19T19:04:09.454Z,84.60
2023-05-19T19:06:37.689Z,84.59
2023-05-19T19:09:04.697Z,84.73
2023-05-19T19:11:31.914Z,84.99
2023-05-19T19:13:58.818Z,85.08
2023-05-19T19:16:25.768Z,85.19
2023-05-19T19:18:53.356Z,85.53
2023-05-19T19:21:20.392Z,85.83
2023-05-19T19:23:47.235Z,85.33
2023-05-19T19:26:13.993Z,85.72
2023-05-19T19:28:42.051Z,86.07
2023-05-19T19:31:08.941Z,86.96
2023-05-19T19:33:35.803Z,87.09
2023-05-19T19:36:02.854Z,86.95
2023-05-19T19:38:29.682Z,87.70
2023-05-19T19:40:57.329Z,87.56
2023-05-19T19:43:24.706Z,88.14
2023-05-19T19:46:02.177Z,88.12
2023-05-19T19:48:57.021Z,89.67
2023-05-19T19:51:29.376Z,89.27
2023-05-19T19:53:56.162Z,90.99
2023-05-19T19:56:23.992Z,90.76
2023-05-19T19:58:51.103Z,90.74
2023-05-19T20:01:19.081Z,90.91
2023-05-19T20:03:46.335Z,91.42
2023-05-19T20:06:15.416Z,91.10
2023-05-19T20:09:07.442Z,92.21
2023-05-19T20:11:39.425Z,91.98
2023-05-19T20:14:07.006Z,92.15
2023-05-19T20:16:33.919Z,92.08
2023-05-19T20:19:00.847Z,94.16
2023-05-19T20:21:27.726Z,94.97
2023-05-19T20:23:55.406Z,94.39
2023-05-19T20:26:23.328Z,95.96
2023-05-19T20:28:50.330Z,95.77
2023-05-19T20:31:17.276Z,96.41
2023-05-19T20:33:44.140Z,95.88
2023-05-19T20:36:11.109Z,96.06
2023-05-19T20:38:37.858Z,96.10
2023-05-19T20:41:04.755Z,96.71
2023-05-19T20:43:32.395Z,96.09
2023-05-19T20:46:00.179Z,97.33
2023-05-19T20:48:27.210Z,97.15
2023-05-19T20:50:55.441Z,98.16
2023-05-19T20:53:23.907Z,98.78
2023-05-19T20:55:50.707Z,98.74
2023-05-19T20:58:18.383Z,97.70
2023-05-19T21:00:45.161Z,97.37
2023-05-19T21:03:12.126Z,97.00
2023-05-19T21:05:39.967Z,96.80
2023-05-19T21:08:08.762Z,96.71
2023-05-19T21:10:35.641Z,95.78
2023-05-19T21:13:03.018Z,95.34
2023-05-19T21:15:30.933Z,95.70
2023-05-19T21:17:59.781Z,96.98
2023-05-19T21:20:26.695Z,97.68
2023-05-19T21:22:53.726Z,99.34
2023-05-19T21:25:20.811Z,100.00
2023-05-19T21:27:47.597Z,100.00
2023-05-19T21:30:14.527Z,99.96
2023-05-19T21:32:42.503Z,99.17
2023-05-19T21:35:09.402Z,98.72
2023-05-19T21:37:37.807Z,99.69
2023-05-19T21:40:05.389Z,100.00
2023-05-19T21:42:32.217Z,100.00
2023-05-19T21:45:00.389Z,100.00
2023-05-19T21:47:27.329Z,99.95
2023-05-19T21:49:57.322Z,99.45
2023-05-19T21:52:27.770Z,100.00
2023-05-19T21:54:54.654Z,100.00
2023-05-19T21:57:22.381Z,100.00
2023-05-19T21:59:49.299Z,100.00
2023-05-19T22:02:45.463Z,100.00
2023-05-19T22:05:12.913Z,100.00
2023-05-19T22:07:39.835Z,99.71
2023-05-19T22:10:07.043Z,99.30
2023-05-19T22:12:33.858Z,98.71
2023-05-19T22:15:00.724Z,97.85
2023-05-19T22:17:29.475Z,97.49
2023-05-19T22:19:57.779Z,98.54
2023-05-19T22:22:50.433Z,99.29
2023-05-19T22:25:17.921Z,100.00
2023-05-19T22:27:44.873Z,100.00
2023-05-19T22:30:11.901Z,100.00
2023-05-19T22:32:38.794Z,100.00
2023-05-19T22:35:05.828Z,100.00
2023-05-19T22:37:32.953Z,100.00
2023-05-19T22:40:01.717Z,100.00
2023-05-19T22:42:28.542Z,100.00
2023-05-19T22:44:56.392Z,100.00
2023-05-19T22:47:23.946Z,100.00
2023-05-19T22:49:52.055Z,100.00
2023-05-19T22:52:19.778Z,100.00
2023-05-19T22:54:49.927Z,100.00
2023-05-19T22:57:18.455Z,100.00
2023-05-19T22:59:45.383Z,100.00
2023-05-19T23:02:37.444Z,100.00
2023-05-19T23:05:04.773Z,100.00
2023-05-19T23:07:33.751Z,100.00
2023-05-19T23:10:00.551Z,100.00
2023-05-19T23:12:27.869Z,100.00
2023-05-19T23:14:55.010Z,100.00
2023-05-19T23:17:21.852Z,100.00
2023-05-19T23:19:48.766Z,100.00
2023-05-19T23:22:16.455Z,100.00
2023-05-19T23:24:43.810Z,100.00
2023-05-19T23:27:11.474Z,100.00
2023-05-19T23:29:38.370Z,100.00
2023-05-19T23:32:05.833Z,100.00
2023-05-19T23:34:32.773Z,100.00
2023-05-19T23:36:59.657Z,100.00
2023-05-19T23:39:26.571Z,100.00
2023-05-19T23:41:54.002Z,100.00
2023-05-19T23:44:21.026Z,100.00
2023-05-19T23:46:47.952Z,100.00
2023-05-19T23:49:39.826Z,100.00
2023-05-19T23:52:06.939Z,100.00
2023-05-19T23:54:33.750Z,100.00
2023-05-19T23:57:03.406Z,100.00
2023-05-19T23:59:30.359Z,100.00
